sensor_id;sensor_type;location;lat;lon;timestamp;temperature;humidity
6102;DHT22;3081;50.584;7.032;2023-06-14T00:00:16;17.70;70.30
6102;DHT22;3081;50.584;7.032;2023-06-14T00:02:43;17.70;70.30
6102;DHT22;3081;50.584;7.032;2023-06-14T00:05:11;17.80;70.40
6102;DHT22;3081;50.584;7.032;2023-06-14T00:07:40;17.80;69.90
6102;DHT22;3081;50.584;7.032;2023-06-14T00:10:10;17.90;69.40
6102;DHT22;3081;50.584;7.032;2023-06-14T00:12:38;18.00;69.40
6102;DHT22;3081;50.584;7.032;2023-06-14T00:15:06;18.00;69.30
6102;DHT22;3081;50.584;7.032;2023-06-14T00:17:35;18.10;69.30
6102;DHT22;3081;50.584;7.032;2023-06-14T00:20:04;18.10;69.10
6102;DHT22;3081;50.584;7.032;2023-06-14T00:22:34;18.10;68.70
6102;DHT22;3081;50.584;7.032;2023-06-14T00:25:02;18.10;68.40
6102;DHT22;3081;50.584;7.032;2023-06-14T00:27:29;18.20;68.30
6102;DHT22;3081;50.584;7.032;2023-06-14T00:29:56;18.20;68.50
6102;DHT22;3081;50.584;7.032;2023-06-14T00:32:23;18.20;68.50
6102;DHT22;3081;50.584;7.032;2023-06-14T00:34:51;18.10;68.80
6102;DHT22;3081;50.584;7.032;2023-06-14T00:37:18;18.10;69.00
6102;DHT22;3081;50.584;7.032;2023-06-14T00:39:46;18.00;69.10
6102;DHT22;3081;50.584;7.032;2023-06-14T00:42:23;17.90;69.50
6102;DHT22;3081;50.584;7.032;2023-06-14T00:44:51;17.80;69.50
6102;DHT22;3081;50.584;7.032;2023-06-14T00:47:18;17.70;69.90
6102;DHT22;3081;50.584;7.032;2023-06-14T00:49:46;17.70;69.80
6102;DHT22;3081;50.584;7.032;2023-06-14T00:52:14;17.70;69.90
6102;DHT22;3081;50.584;7.032;2023-06-14T00:54:42;17.80;70.10
6102;DHT22;3081;50.584;7.032;2023-06-14T00:57:11;17.80;70.40
6102;DHT22;3081;50.584;7.032;2023-06-14T00:59:42;17.80;70.50
6102;DHT22;3081;50.584;7.032;2023-06-14T01:02:09;17.80;71.60
6102;DHT22;3081;50.584;7.032;2023-06-14T01:04:37;17.60;71.90
6102;DHT22;3081;50.584;7.032;2023-06-14T01:07:10;17.40;72.10
6102;DHT22;3081;50.584;7.032;2023-06-14T01:09:48;17.30;72.60
6102;DHT22;3081;50.584;7.032;2023-06-14T01:12:31;17.20;73.20
6102;DHT22;3081;50.584;7.032;2023-06-14T01:14:59;17.20;73.30
6102;DHT22;3081;50.584;7.032;2023-06-14T01:17:27;17.10;73.40
6102;DHT22;3081;50.584;7.032;2023-06-14T01:19:57;17.00;73.50
6102;DHT22;3081;50.584;7.032;2023-06-14T01:22:26;16.90;73.80
6102;DHT22;3081;50.584;7.032;2023-06-14T01:24:54;16.90;74.40
6102;DHT22;3081;50.584;7.032;2023-06-14T01:27:23;16.80;75.00
6102;DHT22;3081;50.584;7.032;2023-06-14T01:29:54;16.70;75.80
6102;DHT22;3081;50.584;7.032;2023-06-14T01:32:23;16.60;76.50
6102;DHT22;3081;50.584;7.032;2023-06-14T01:34:51;16.50;76.30
6102;DHT22;3081;50.584;7.032;2023-06-14T01:37:19;16.40;76.20
6102;DHT22;3081;50.584;7.032;2023-06-14T01:39:47;16.40;76.40
6102;DHT22;3081;50.584;7.032;2023-06-14T01:42:16;16.40;77.20
6102;DHT22;3081;50.584;7.032;2023-06-14T01:44:44;16.40;76.90
6102;DHT22;3081;50.584;7.032;2023-06-14T01:47:12;16.30;77.20
6102;DHT22;3081;50.584;7.032;2023-06-14T01:49:40;16.20;77.10
6102;DHT22;3081;50.584;7.032;2023-06-14T01:52:07;16.10;77.30
6102;DHT22;3081;50.584;7.032;2023-06-14T01:54:35;16.10;77.70
6102;DHT22;3081;50.584;7.032;2023-06-14T01:57:07;16.00;78.00
6102;DHT22;3081;50.584;7.032;2023-06-14T01:59:35;15.90;78.00
6102;DHT22;3081;50.584;7.032;2023-06-14T02:02:03;15.90;78.60
6102;DHT22;3081;50.584;7.032;2023-06-14T02:04:30;15.80;78.70
6102;DHT22;3081;50.584;7.032;2023-06-14T02:06:57;15.80;78.60
6102;DHT22;3081;50.584;7.032;2023-06-14T02:09:24;15.70;78.90
6102;DHT22;3081;50.584;7.032;2023-06-14T02:11:51;15.70;79.10
6102;DHT22;3081;50.584;7.032;2023-06-14T02:14:18;15.60;79.10
6102;DHT22;3081;50.584;7.032;2023-06-14T02:16:47;15.50;79.20
6102;DHT22;3081;50.584;7.032;2023-06-14T02:19:15;15.50;79.30
6102;DHT22;3081;50.584;7.032;2023-06-14T02:21:42;15.40;79.20
6102;DHT22;3081;50.584;7.032;2023-06-14T02:24:09;15.50;79.00
6102;DHT22;3081;50.584;7.032;2023-06-14T02:26:37;15.50;79.10
6102;DHT22;3081;50.584;7.032;2023-06-14T02:29:04;15.40;79.00
6102;DHT22;3081;50.584;7.032;2023-06-14T02:31:31;15.40;79.20
6102;DHT22;3081;50.584;7.032;2023-06-14T02:33:59;15.40;80.10
6102;DHT22;3081;50.584;7.032;2023-06-14T02:36:26;15.30;79.80
6102;DHT22;3081;50.584;7.032;2023-06-14T02:38:55;15.30;80.10
6102;DHT22;3081;50.584;7.032;2023-06-14T02:41:23;15.20;80.40
6102;DHT22;3081;50.584;7.032;2023-06-14T02:43:50;15.20;80.80
6102;DHT22;3081;50.584;7.032;2023-06-14T02:46:16;15.10;81.80
6102;DHT22;3081;50.584;7.032;2023-06-14T02:48:43;15.00;81.90
6102;DHT22;3081;50.584;7.032;2023-06-14T02:51:12;15.00;81.90
6102;DHT22;3081;50.584;7.032;2023-06-14T02:53:39;14.90;82.30
6102;DHT22;3081;50.584;7.032;2023-06-14T02:56:06;14.80;82.50
6102;DHT22;3081;50.584;7.032;2023-06-14T02:58:32;14.80;82.60
6102;DHT22;3081;50.584;7.032;2023-06-14T03:00:59;14.80;83.30
6102;DHT22;3081;50.584;7.032;2023-06-14T03:03:29;14.80;83.10
6102;DHT22;3081;50.584;7.032;2023-06-14T03:05:55;14.80;83.00
6102;DHT22;3081;50.584;7.032;2023-06-14T03:08:24;14.80;83.20
6102;DHT22;3081;50.584;7.032;2023-06-14T03:10:53;14.80;83.10
6102;DHT22;3081;50.584;7.032;2023-06-14T03:13:21;14.80;83.10
6102;DHT22;3081;50.584;7.032;2023-06-14T03:15:48;14.80;83.20
6102;DHT22;3081;50.584;7.032;2023-06-14T03:18:16;14.80;83.10
6102;DHT22;3081;50.584;7.032;2023-06-14T03:20:43;14.80;83.10
6102;DHT22;3081;50.584;7.032;2023-06-14T03:23:11;14.80;83.30
6102;DHT22;3081;50.584;7.032;2023-06-14T03:25:39;14.70;84.10
6102;DHT22;3081;50.584;7.032;2023-06-14T03:28:07;14.70;84.60
6102;DHT22;3081;50.584;7.032;2023-06-14T03:30:34;14.60;84.80
6102;DHT22;3081;50.584;7.032;2023-06-14T03:33:01;14.60;84.90
6102;DHT22;3081;50.584;7.032;2023-06-14T03:35:29;14.60;85.00
6102;DHT22;3081;50.584;7.032;2023-06-14T03:37:55;14.60;85.10
6102;DHT22;3081;50.584;7.032;2023-06-14T03:40:22;14.60;85.10
6102;DHT22;3081;50.584;7.032;2023-06-14T03:42:53;14.60;85.40
6102;DHT22;3081;50.584;7.032;2023-06-14T03:45:20;14.60;85.30
6102;DHT22;3081;50.584;7.032;2023-06-14T03:47:47;14.60;85.50
6102;DHT22;3081;50.584;7.032;2023-06-14T03:50:14;14.70;85.40
6102;DHT22;3081;50.584;7.032;2023-06-14T03:52:41;14.80;85.40
6102;DHT22;3081;50.584;7.032;2023-06-14T03:55:09;14.80;85.30
6102;DHT22;3081;50.584;7.032;2023-06-14T03:57:38;14.80;85.40
6102;DHT22;3081;50.584;7.032;2023-06-14T04:00:08;14.80;85.50
6102;DHT22;3081;50.584;7.032;2023-06-14T04:02:37;14.80;85.40
6102;DHT22;3081;50.584;7.032;2023-06-14T04:05:04;14.90;85.40
6102;DHT22;3081;50.584;7.032;2023-06-14T04:07:34;14.90;85.40
6102;DHT22;3081;50.584;7.032;2023-06-14T04:10:07;14.90;85.50
6102;DHT22;3081;50.584;7.032;2023-06-14T04:12:34;15.00;85.40
6102;DHT22;3081;50.584;7.032;2023-06-14T04:15:01;15.00;85.30
6102;DHT22;3081;50.584;7.032;2023-06-14T04:17:29;15.10;85.40
6102;DHT22;3081;50.584;7.032;2023-06-14T04:19:58;15.10;85.60
6102;DHT22;3081;50.584;7.032;2023-06-14T04:22:25;15.10;85.70
6102;DHT22;3081;50.584;7.032;2023-06-14T04:24:54;15.20;86.00
6102;DHT22;3081;50.584;7.032;2023-06-14T04:27:22;15.20;86.20
6102;DHT22;3081;50.584;7.032;2023-06-14T04:29:51;15.30;86.20
6102;DHT22;3081;50.584;7.032;2023-06-14T04:32:23;15.50;86.50
6102;DHT22;3081;50.584;7.032;2023-06-14T04:34:53;15.70;86.10
6102;DHT22;3081;50.584;7.032;2023-06-14T04:37:20;15.80;85.40
6102;DHT22;3081;50.584;7.032;2023-06-14T04:39:47;16.00;85.00
6102;DHT22;3081;50.584;7.032;2023-06-14T04:42:14;16.20;84.70
6102;DHT22;3081;50.584;7.032;2023-06-14T04:44:42;16.40;84.00
6102;DHT22;3081;50.584;7.032;2023-06-14T04:47:09;16.50;83.00
6102;DHT22;3081;50.584;7.032;2023-06-14T04:49:38;16.80;82.10
6102;DHT22;3081;50.584;7.032;2023-06-14T04:52:07;17.10;81.20
6102;DHT22;3081;50.584;7.032;2023-06-14T04:54:35;17.50;80.50
6102;DHT22;3081;50.584;7.032;2023-06-14T04:57:04;17.90;80.60
6102;DHT22;3081;50.584;7.032;2023-06-14T04:59:31;18.30;79.00
6102;DHT22;3081;50.584;7.032;2023-06-14T05:01:59;18.50;78.00
6102;DHT22;3081;50.584;7.032;2023-06-14T05:04:26;18.60;77.00
6102;DHT22;3081;50.584;7.032;2023-06-14T05:06:54;18.50;75.70
6102;DHT22;3081;50.584;7.032;2023-06-14T05:09:23;18.50;75.10
6102;DHT22;3081;50.584;7.032;2023-06-14T05:11:50;18.50;74.70
6102;DHT22;3081;50.584;7.032;2023-06-14T05:14:17;18.50;73.70
6102;DHT22;3081;50.584;7.032;2023-06-14T05:16:44;18.50;73.40
6102;DHT22;3081;50.584;7.032;2023-06-14T05:19:11;18.60;73.10
6102;DHT22;3081;50.584;7.032;2023-06-14T05:21:38;18.60;72.70
6102;DHT22;3081;50.584;7.032;2023-06-14T05:24:05;18.70;72.40
6102;DHT22;3081;50.584;7.032;2023-06-14T05:26:35;18.70;71.90
6102;DHT22;3081;50.584;7.032;2023-06-14T05:29:02;18.80;72.00
6102;DHT22;3081;50.584;7.032;2023-06-14T05:31:29;18.80;72.20
6102;DHT22;3081;50.584;7.032;2023-06-14T05:33:56;18.80;71.80
6102;DHT22;3081;50.584;7.032;2023-06-14T05:36:23;18.80;72.20
6102;DHT22;3081;50.584;7.032;2023-06-14T05:38:50;18.80;72.40
6102;DHT22;3081;50.584;7.032;2023-06-14T05:41:23;18.90;72.70
6102;DHT22;3081;50.584;7.032;2023-06-14T05:43:52;19.00;72.20
6102;DHT22;3081;50.584;7.032;2023-06-14T05:46:19;19.00;72.00
6102;DHT22;3081;50.584;7.032;2023-06-14T05:48:50;19.10;71.90
6102;DHT22;3081;50.584;7.032;2023-06-14T05:51:17;19.10;72.00
6102;DHT22;3081;50.584;7.032;2023-06-14T05:53:45;18.90;72.40
6102;DHT22;3081;50.584;7.032;2023-06-14T05:56:12;18.90;72.70
6102;DHT22;3081;50.584;7.032;2023-06-14T05:58:39;19.00;72.90
6102;DHT22;3081;50.584;7.032;2023-06-14T06:01:07;19.10;73.10
6102;DHT22;3081;50.584;7.032;2023-06-14T06:03:34;19.20;73.10
6102;DHT22;3081;50.584;7.032;2023-06-14T06:06:01;19.40;73.00
6102;DHT22;3081;50.584;7.032;2023-06-14T06:08:28;19.50;72.10
6102;DHT22;3081;50.584;7.032;2023-06-14T06:10:55;19.60;72.30
6102;DHT22;3081;50.584;7.032;2023-06-14T06:13:23;19.70;72.50
6102;DHT22;3081;50.584;7.032;2023-06-14T06:15:50;19.70;72.00
6102;DHT22;3081;50.584;7.032;2023-06-14T06:18:18;19.70;70.60
6102;DHT22;3081;50.584;7.032;2023-06-14T06:20:45;19.80;69.80
6102;DHT22;3081;50.584;7.032;2023-06-14T06:23:13;19.80;68.50
6102;DHT22;3081;50.584;7.032;2023-06-14T06:25:40;19.90;68.00
6102;DHT22;3081;50.584;7.032;2023-06-14T06:28:07;20.00;68.40
6102;DHT22;3081;50.584;7.032;2023-06-14T06:30:34;20.00;68.20
6102;DHT22;3081;50.584;7.032;2023-06-14T06:33:01;20.10;66.70
6102;DHT22;3081;50.584;7.032;2023-06-14T06:35:30;20.20;65.30
6102;DHT22;3081;50.584;7.032;2023-06-14T06:37:59;20.20;64.30
6102;DHT22;3081;50.584;7.032;2023-06-14T06:40:26;20.30;64.40
6102;DHT22;3081;50.584;7.032;2023-06-14T06:42:53;20.30;63.70
6102;DHT22;3081;50.584;7.032;2023-06-14T06:45:20;20.40;63.30
6102;DHT22;3081;50.584;7.032;2023-06-14T06:47:49;20.40;63.30
6102;DHT22;3081;50.584;7.032;2023-06-14T06:50:18;20.50;63.40
6102;DHT22;3081;50.584;7.032;2023-06-14T06:52:46;20.50;63.50
6102;DHT22;3081;50.584;7.032;2023-06-14T06:55:13;20.60;63.80
6102;DHT22;3081;50.584;7.032;2023-06-14T06:57:40;20.70;64.00
6102;DHT22;3081;50.584;7.032;2023-06-14T07:00:08;20.70;63.20
6102;DHT22;3081;50.584;7.032;2023-06-14T07:02:36;20.80;63.10
6102;DHT22;3081;50.584;7.032;2023-06-14T07:05:03;20.80;63.70
6102;DHT22;3081;50.584;7.032;2023-06-14T07:07:30;20.90;63.60
6102;DHT22;3081;50.584;7.032;2023-06-14T07:09:58;20.90;63.40
6102;DHT22;3081;50.584;7.032;2023-06-14T07:12:26;21.00;63.80
6102;DHT22;3081;50.584;7.032;2023-06-14T07:14:52;21.10;63.10
6102;DHT22;3081;50.584;7.032;2023-06-14T07:17:19;21.20;63.00
6102;DHT22;3081;50.584;7.032;2023-06-14T07:19:46;21.20;63.40
6102;DHT22;3081;50.584;7.032;2023-06-14T07:22:13;21.30;63.40
6102;DHT22;3081;50.584;7.032;2023-06-14T07:24:40;21.30;63.50
6102;DHT22;3081;50.584;7.032;2023-06-14T07:27:09;21.40;62.60
6102;DHT22;3081;50.584;7.032;2023-06-14T07:29:36;21.50;62.50
6102;DHT22;3081;50.584;7.032;2023-06-14T07:32:04;21.50;61.80
6102;DHT22;3081;50.584;7.032;2023-06-14T07:34:31;21.60;61.40
6102;DHT22;3081;50.584;7.032;2023-06-14T07:36:57;21.70;61.40
6102;DHT22;3081;50.584;7.032;2023-06-14T07:39:24;21.70;60.40
6102;DHT22;3081;50.584;7.032;2023-06-14T07:41:51;21.70;60.70
6102;DHT22;3081;50.584;7.032;2023-06-14T07:44:19;21.70;60.80
6102;DHT22;3081;50.584;7.032;2023-06-14T07:46:46;21.70;60.40
6102;DHT22;3081;50.584;7.032;2023-06-14T07:49:14;21.80;60.20
6102;DHT22;3081;50.584;7.032;2023-06-14T07:51:41;21.90;60.20
6102;DHT22;3081;50.584;7.032;2023-06-14T07:54:09;22.00;59.70
6102;DHT22;3081;50.584;7.032;2023-06-14T07:56:36;22.00;59.60
6102;DHT22;3081;50.584;7.032;2023-06-14T07:59:03;22.10;59.50
6102;DHT22;3081;50.584;7.032;2023-06-14T08:01:32;22.20;59.00
6102;DHT22;3081;50.584;7.032;2023-06-14T08:03:59;22.10;59.30
6102;DHT22;3081;50.584;7.032;2023-06-14T08:06:26;22.20;59.60
6102;DHT22;3081;50.584;7.032;2023-06-14T08:08:53;22.20;59.30
6102;DHT22;3081;50.584;7.032;2023-06-14T08:11:20;22.30;59.40
6102;DHT22;3081;50.584;7.032;2023-06-14T08:13:49;22.30;59.20
6102;DHT22;3081;50.584;7.032;2023-06-14T08:16:16;22.50;58.50
6102;DHT22;3081;50.584;7.032;2023-06-14T08:18:44;22.60;58.40
6102;DHT22;3081;50.584;7.032;2023-06-14T08:21:11;22.70;57.50
6102;DHT22;3081;50.584;7.032;2023-06-14T08:23:40;22.80;57.50
6102;DHT22;3081;50.584;7.032;2023-06-14T08:26:08;22.80;57.50
6102;DHT22;3081;50.584;7.032;2023-06-14T08:28:35;22.80;57.50
6102;DHT22;3081;50.584;7.032;2023-06-14T08:31:02;22.90;57.60
6102;DHT22;3081;50.584;7.032;2023-06-14T08:33:29;23.10;57.50
6102;DHT22;3081;50.584;7.032;2023-06-14T08:35:59;23.20;56.40
6102;DHT22;3081;50.584;7.032;2023-06-14T08:38:26;23.20;55.60
6102;DHT22;3081;50.584;7.032;2023-06-14T08:40:57;23.10;55.70
6102;DHT22;3081;50.584;7.032;2023-06-14T08:43:24;23.10;56.40
6102;DHT22;3081;50.584;7.032;2023-06-14T08:45:53;23.10;56.40
6102;DHT22;3081;50.584;7.032;2023-06-14T08:48:23;23.30;56.50
6102;DHT22;3081;50.584;7.032;2023-06-14T08:50:54;23.40;56.00
6102;DHT22;3081;50.584;7.032;2023-06-14T08:53:28;23.40;56.00
6102;DHT22;3081;50.584;7.032;2023-06-14T08:55:57;23.50;55.80
6102;DHT22;3081;50.584;7.032;2023-06-14T08:58:27;23.50;55.60
6102;DHT22;3081;50.584;7.032;2023-06-14T09:00:55;23.60;55.70
6102;DHT22;3081;50.584;7.032;2023-06-14T09:03:23;23.60;55.70
6102;DHT22;3081;50.584;7.032;2023-06-14T09:05:56;23.70;55.00
6102;DHT22;3081;50.584;7.032;2023-06-14T09:08:25;23.60;55.60
6102;DHT22;3081;50.584;7.032;2023-06-14T09:10:55;23.70;55.10
6102;DHT22;3081;50.584;7.032;2023-06-14T09:13:22;23.80;55.00
6102;DHT22;3081;50.584;7.032;2023-06-14T09:15:49;23.90;55.00
6102;DHT22;3081;50.584;7.032;2023-06-14T09:18:16;23.90;54.30
6102;DHT22;3081;50.584;7.032;2023-06-14T09:20:45;24.10;54.30
6102;DHT22;3081;50.584;7.032;2023-06-14T09:23:13;24.30;53.70
6102;DHT22;3081;50.584;7.032;2023-06-14T09:25:46;24.40;53.30
6102;DHT22;3081;50.584;7.032;2023-06-14T09:28:14;24.60;52.50
6102;DHT22;3081;50.584;7.032;2023-06-14T09:30:41;24.80;50.90
6102;DHT22;3081;50.584;7.032;2023-06-14T09:33:08;24.90;50.10
6102;DHT22;3081;50.584;7.032;2023-06-14T09:35:35;25.10;50.40
6102;DHT22;3081;50.584;7.032;2023-06-14T09:38:02;25.30;49.90
6102;DHT22;3081;50.584;7.032;2023-06-14T09:40:34;25.60;49.10
6102;DHT22;3081;50.584;7.032;2023-06-14T09:43:03;26.00;49.70
6102;DHT22;3081;50.584;7.032;2023-06-14T09:45:32;26.50;48.40
6102;DHT22;3081;50.584;7.032;2023-06-14T09:48:00;27.20;47.10
6102;DHT22;3081;50.584;7.032;2023-06-14T09:50:27;28.00;45.80
6102;DHT22;3081;50.584;7.032;2023-06-14T09:52:58;28.80;44.70
6102;DHT22;3081;50.584;7.032;2023-06-14T09:55:27;29.80;43.60
6102;DHT22;3081;50.584;7.032;2023-06-14T09:57:56;30.40;42.40
6102;DHT22;3081;50.584;7.032;2023-06-14T10:00:25;30.80;41.10
6102;DHT22;3081;50.584;7.032;2023-06-14T10:02:59;31.20;41.00
6102;DHT22;3081;50.584;7.032;2023-06-14T10:05:28;31.60;40.90
6102;DHT22;3081;50.584;7.032;2023-06-14T10:08:00;31.90;40.60
6102;DHT22;3081;50.584;7.032;2023-06-14T10:10:30;32.30;39.70
6102;DHT22;3081;50.584;7.032;2023-06-14T10:12:57;32.60;38.70
6102;DHT22;3081;50.584;7.032;2023-06-14T10:15:38;32.80;38.80
6102;DHT22;3081;50.584;7.032;2023-06-14T10:18:14;32.90;39.30
6102;DHT22;3081;50.584;7.032;2023-06-14T10:20:53;33.10;38.80
6102;DHT22;3081;50.584;7.032;2023-06-14T10:23:24;33.10;39.20
6102;DHT22;3081;50.584;7.032;2023-06-14T10:25:56;33.20;38.60
6102;DHT22;3081;50.584;7.032;2023-06-14T10:28:23;33.20;38.60
6102;DHT22;3081;50.584;7.032;2023-06-14T10:31:14;33.20;38.40
6102;DHT22;3081;50.584;7.032;2023-06-14T10:33:52;33.20;38.30
6102;DHT22;3081;50.584;7.032;2023-06-14T10:36:27;33.50;38.20
6102;DHT22;3081;50.584;7.032;2023-06-14T10:39:00;33.70;37.40
6102;DHT22;3081;50.584;7.032;2023-06-14T10:41:28;33.80;36.90
6102;DHT22;3081;50.584;7.032;2023-06-14T10:44:34;33.80;37.50
6102;DHT22;3081;50.584;7.032;2023-06-14T10:47:07;34.00;37.70
6102;DHT22;3081;50.584;7.032;2023-06-14T10:49:43;34.30;36.70
6102;DHT22;3081;50.584;7.032;2023-06-14T10:52:12;34.30;36.70
6102;DHT22;3081;50.584;7.032;2023-06-14T10:55:02;34.40;36.80
6102;DHT22;3081;50.584;7.032;2023-06-14T10:57:31;34.80;36.30
6102;DHT22;3081;50.584;7.032;2023-06-14T10:59:59;34.80;36.10
6102;DHT22;3081;50.584;7.032;2023-06-14T11:05:28;35.20;36.30
6102;DHT22;3081;50.584;7.032;2023-06-14T11:08:24;35.20;35.80
6102;DHT22;3081;50.584;7.032;2023-06-14T11:10:54;34.80;36.00
6102;DHT22;3081;50.584;7.032;2023-06-14T11:13:25;34.20;35.80
6102;DHT22;3081;50.584;7.032;2023-06-14T11:15:52;33.90;36.80
6102;DHT22;3081;50.584;7.032;2023-06-14T11:18:22;34.00;36.90
6102;DHT22;3081;50.584;7.032;2023-06-14T11:20:52;34.20;36.70
6102;DHT22;3081;50.584;7.032;2023-06-14T11:23:19;34.60;36.00
6102;DHT22;3081;50.584;7.032;2023-06-14T11:25:50;34.70;36.00
6102;DHT22;3081;50.584;7.032;2023-06-14T11:28:17;35.00;35.90
6102;DHT22;3081;50.584;7.032;2023-06-14T11:30:47;35.20;36.40
6102;DHT22;3081;50.584;7.032;2023-06-14T11:33:17;35.40;36.80
6102;DHT22;3081;50.584;7.032;2023-06-14T11:35:45;35.90;36.20
6102;DHT22;3081;50.584;7.032;2023-06-14T11:38:13;36.30;35.40
6102;DHT22;3081;50.584;7.032;2023-06-14T11:40:40;36.20;35.40
6102;DHT22;3081;50.584;7.032;2023-06-14T11:43:07;36.00;36.00
6102;DHT22;3081;50.584;7.032;2023-06-14T11:45:34;36.10;35.80
6102;DHT22;3081;50.584;7.032;2023-06-14T11:48:01;36.40;35.40
6102;DHT22;3081;50.584;7.032;2023-06-14T11:50:28;36.60;35.70
6102;DHT22;3081;50.584;7.032;2023-06-14T11:52:55;36.40;35.00
6102;DHT22;3081;50.584;7.032;2023-06-14T11:55:26;36.30;35.50
6102;DHT22;3081;50.584;7.032;2023-06-14T11:57:54;36.80;35.00
6102;DHT22;3081;50.584;7.032;2023-06-14T12:00:25;37.20;34.80
6102;DHT22;3081;50.584;7.032;2023-06-14T12:02:52;37.20;34.40
6102;DHT22;3081;50.584;7.032;2023-06-14T12:05:21;36.90;34.40
6102;DHT22;3081;50.584;7.032;2023-06-14T12:07:48;37.10;34.30
6102;DHT22;3081;50.584;7.032;2023-06-14T12:10:16;37.40;34.10
6102;DHT22;3081;50.584;7.032;2023-06-14T12:12:45;37.80;33.50
6102;DHT22;3081;50.584;7.032;2023-06-14T12:15:12;38.00;33.20
6102;DHT22;3081;50.584;7.032;2023-06-14T12:17:39;38.10;33.10
6102;DHT22;3081;50.584;7.032;2023-06-14T12:20:09;38.10;32.80
6102;DHT22;3081;50.584;7.032;2023-06-14T12:22:39;37.70;33.10
6102;DHT22;3081;50.584;7.032;2023-06-14T12:25:06;37.60;33.00
6102;DHT22;3081;50.584;7.032;2023-06-14T12:27:35;37.40;32.80
6102;DHT22;3081;50.584;7.032;2023-06-14T12:30:04;37.50;33.70
6102;DHT22;3081;50.584;7.032;2023-06-14T12:32:33;38.00;33.20
6102;DHT22;3081;50.584;7.032;2023-06-14T12:35:00;38.30;32.90
6102;DHT22;3081;50.584;7.032;2023-06-14T12:37:27;38.40;33.20
6102;DHT22;3081;50.584;7.032;2023-06-14T12:39:54;38.60;33.10
6102;DHT22;3081;50.584;7.032;2023-06-14T12:42:21;38.90;33.00
6102;DHT22;3081;50.584;7.032;2023-06-14T12:44:48;39.50;32.50
6102;DHT22;3081;50.584;7.032;2023-06-14T12:47:16;39.60;32.40
6102;DHT22;3081;50.584;7.032;2023-06-14T12:49:43;39.00;32.40
6102;DHT22;3081;50.584;7.032;2023-06-14T12:52:10;39.40;32.80
6102;DHT22;3081;50.584;7.032;2023-06-14T12:54:37;40.10;32.60
6102;DHT22;3081;50.584;7.032;2023-06-14T12:57:05;40.50;31.50
6102;DHT22;3081;50.584;7.032;2023-06-14T12:59:32;40.50;31.10
6102;DHT22;3081;50.584;7.032;2023-06-14T13:02:10;40.50;31.00
6102;DHT22;3081;50.584;7.032;2023-06-14T13:04:38;40.70;30.80
6102;DHT22;3081;50.584;7.032;2023-06-14T13:07:05;41.20;31.20
6102;DHT22;3081;50.584;7.032;2023-06-14T13:09:32;41.70;31.20
6102;DHT22;3081;50.584;7.032;2023-06-14T13:11:59;41.80;30.90
6102;DHT22;3081;50.584;7.032;2023-06-14T13:14:27;41.30;31.00
6102;DHT22;3081;50.584;7.032;2023-06-14T13:16:53;39.90;31.60
6102;DHT22;3081;50.584;7.032;2023-06-14T13:19:20;39.00;33.40
6102;DHT22;3081;50.584;7.032;2023-06-14T13:21:49;39.10;33.70
6102;DHT22;3081;50.584;7.032;2023-06-14T13:24:16;39.10;33.60
6102;DHT22;3081;50.584;7.032;2023-06-14T13:26:43;38.80;34.40
6102;DHT22;3081;50.584;7.032;2023-06-14T13:29:10;39.90;33.20
6102;DHT22;3081;50.584;7.032;2023-06-14T13:31:37;41.00;32.10
6102;DHT22;3081;50.584;7.032;2023-06-14T13:34:04;40.30;31.50
6102;DHT22;3081;50.584;7.032;2023-06-14T13:36:31;39.80;32.30
6102;DHT22;3081;50.584;7.032;2023-06-14T13:38:59;40.40;32.20
6102;DHT22;3081;50.584;7.032;2023-06-14T13:43:57;42.60;30.90
6102;DHT22;3081;50.584;7.032;2023-06-14T13:46:25;43.60;30.30
6102;DHT22;3081;50.584;7.032;2023-06-14T13:48:52;44.00;29.70
6102;DHT22;3081;50.584;7.032;2023-06-14T13:51:19;44.30;29.60
6102;DHT22;3081;50.584;7.032;2023-06-14T13:53:47;45.00;29.20
6102;DHT22;3081;50.584;7.032;2023-06-14T13:56:15;45.20;28.70
6102;DHT22;3081;50.584;7.032;2023-06-14T13:58:42;45.50;28.50
6102;DHT22;3081;50.584;7.032;2023-06-14T14:01:10;45.90;28.50
6102;DHT22;3081;50.584;7.032;2023-06-14T14:03:37;46.30;28.50
6102;DHT22;3081;50.584;7.032;2023-06-14T14:06:04;46.70;28.30
6102;DHT22;3081;50.584;7.032;2023-06-14T14:08:32;46.80;28.30
6102;DHT22;3081;50.584;7.032;2023-06-14T14:10:59;45.30;28.40
6102;DHT22;3081;50.584;7.032;2023-06-14T14:13:27;43.80;29.40
6102;DHT22;3081;50.584;7.032;2023-06-14T14:15:55;44.20;30.00
6102;DHT22;3081;50.584;7.032;2023-06-14T14:18:23;45.00;28.80
6102;DHT22;3081;50.584;7.032;2023-06-14T14:20:50;45.60;28.60
6102;DHT22;3081;50.584;7.032;2023-06-14T14:23:17;46.00;28.40
6102;DHT22;3081;50.584;7.032;2023-06-14T14:25:45;46.60;28.40
6102;DHT22;3081;50.584;7.032;2023-06-14T14:28:12;47.40;28.00
6102;DHT22;3081;50.584;7.032;2023-06-14T14:30:43;47.90;27.40
6102;DHT22;3081;50.584;7.032;2023-06-14T14:33:10;47.50;27.70
6102;DHT22;3081;50.584;7.032;2023-06-14T14:35:41;47.60;27.90
6102;DHT22;3081;50.584;7.032;2023-06-14T14:38:08;47.80;27.70
6102;DHT22;3081;50.584;7.032;2023-06-14T14:40:35;47.90;27.50
6102;DHT22;3081;50.584;7.032;2023-06-14T14:43:02;48.00;27.40
6102;DHT22;3081;50.584;7.032;2023-06-14T14:45:29;48.10;27.20
6102;DHT22;3081;50.584;7.032;2023-06-14T14:47:57;48.90;27.20
6102;DHT22;3081;50.584;7.032;2023-06-14T14:50:25;49.50;26.90
6102;DHT22;3081;50.584;7.032;2023-06-14T14:52:52;49.50;26.90
6102;DHT22;3081;50.584;7.032;2023-06-14T14:55:19;50.00;26.60
6102;DHT22;3081;50.584;7.032;2023-06-14T14:57:46;50.40;26.50
6102;DHT22;3081;50.584;7.032;2023-06-14T15:00:14;50.20;26.70
6102;DHT22;3081;50.584;7.032;2023-06-14T15:02:41;50.20;26.70
6102;DHT22;3081;50.584;7.032;2023-06-14T15:05:09;49.80;26.50
6102;DHT22;3081;50.584;7.032;2023-06-14T15:07:36;47.20;27.10
6102;DHT22;3081;50.584;7.032;2023-06-14T15:10:06;47.20;28.00
6102;DHT22;3081;50.584;7.032;2023-06-14T15:12:34;48.20;27.50
6102;DHT22;3081;50.584;7.032;2023-06-14T15:15:01;49.00;27.10
6102;DHT22;3081;50.584;7.032;2023-06-14T15:17:28;47.30;27.10
6102;DHT22;3081;50.584;7.032;2023-06-14T15:19:55;45.80;28.30
6102;DHT22;3081;50.584;7.032;2023-06-14T15:22:23;46.90;27.90
6102;DHT22;3081;50.584;7.032;2023-06-14T15:24:50;48.10;27.40
6102;DHT22;3081;50.584;7.032;2023-06-14T15:27:17;49.00;26.90
6102;DHT22;3081;50.584;7.032;2023-06-14T15:29:44;49.70;26.60
6102;DHT22;3081;50.584;7.032;2023-06-14T15:32:11;50.20;26.70
6102;DHT22;3081;50.584;7.032;2023-06-14T15:34:38;50.70;26.50
6102;DHT22;3081;50.584;7.032;2023-06-14T15:37:06;50.50;26.60
6102;DHT22;3081;50.584;7.032;2023-06-14T15:39:34;49.60;26.80
6102;DHT22;3081;50.584;7.032;2023-06-14T15:42:03;49.00;27.20
6102;DHT22;3081;50.584;7.032;2023-06-14T15:44:31;49.10;27.10
6102;DHT22;3081;50.584;7.032;2023-06-14T15:46:58;47.90;27.00
6102;DHT22;3081;50.584;7.032;2023-06-14T15:49:25;46.60;27.40
6102;DHT22;3081;50.584;7.032;2023-06-14T15:51:51;47.00;27.70
6102;DHT22;3081;50.584;7.032;2023-06-14T15:54:18;48.40;27.30
6102;DHT22;3081;50.584;7.032;2023-06-14T15:56:47;50.00;26.60
6102;DHT22;3081;50.584;7.032;2023-06-14T15:59:14;50.70;26.50
6102;DHT22;3081;50.584;7.032;2023-06-14T16:01:40;50.80;26.40
6102;DHT22;3081;50.584;7.032;2023-06-14T16:04:07;51.10;26.40
6102;DHT22;3081;50.584;7.032;2023-06-14T16:06:34;51.80;26.10
6102;DHT22;3081;50.584;7.032;2023-06-14T16:09:02;51.60;25.80
6102;DHT22;3081;50.584;7.032;2023-06-14T16:11:29;50.90;25.90
6102;DHT22;3081;50.584;7.032;2023-06-14T16:13:57;51.00;26.20